createdAt,value
2023-03-17T00:00:21.744Z,11.10
2023-03-17T00:03:26.095Z,10.10
2023-03-17T00:06:28.583Z,12.10
2023-03-17T00:09:22.462Z,10.60
2023-03-17T00:12:15.412Z,12.70
2023-03-17T00:15:09.424Z,12.40
2023-03-17T00:18:01.886Z,12.80
2023-03-17T00:20:53.825Z,10.80
2023-03-17T00:23:50.100Z,10.80
2023-03-17T00:26:43.533Z,12.50
2023-03-17T00:29:35.608Z,9.40
2023-03-17T00:32:27.656Z,13.70
2023-03-17T00:35:25.896Z,11.90
2023-03-17T00:38:20.717Z,11.70
2023-03-17T00:41:13.234Z,10.00
2023-03-17T00:44:05.327Z,11.30
2023-03-17T00:46:59.657Z,10.50
2023-03-17T00:49:52.881Z,11.90
2023-03-17T00:52:46.969Z,10.50
2023-03-17T00:55:38.706Z,12.50
2023-03-17T00:58:33.633Z,11.00
2023-03-17T01:01:25.648Z,12.10
2023-03-17T01:04:18.250Z,10.30
2023-03-17T01:07:12.150Z,12.00
2023-03-17T01:10:11.306Z,12.20
2023-03-17T01:13:05.492Z,14.20
2023-03-17T01:15:59.050Z,13.70
2023-03-17T01:18:51.997Z,11.70
2023-03-17T01:21:44.058Z,10.00
2023-03-17T01:24:37.610Z,12.60
2023-03-17T01:27:34.268Z,14.00
2023-03-17T01:30:30.814Z,10.70
2023-03-17T01:33:23.113Z,13.50
2023-03-17T01:36:15.813Z,11.90
2023-03-17T01:39:07.857Z,14.20
2023-03-17T01:42:01.771Z,12.80
2023-03-17T01:45:05.650Z,14.40
2023-03-17T01:47:57.603Z,12.00
2023-03-17T01:50:49.994Z,14.30
2023-03-17T01:53:42.237Z,12.30
2023-03-17T01:56:36.469Z,11.70
2023-03-17T01:59:33.859Z,11.20
2023-03-17T02:02:36.321Z,9.30
2023-03-17T02:05:32.451Z,10.40
2023-03-17T02:08:26.410Z,10.10
2023-03-17T02:11:21.122Z,10.90
2023-03-17T02:14:13.683Z,10.60
2023-03-17T02:17:06.567Z,9.50
2023-03-17T02:20:14.256Z,8.90
2023-03-17T02:23:07.652Z,11.80
2023-03-17T02:25:59.594Z,11.30
2023-03-17T02:28:52.377Z,9.20
2023-03-17T02:31:45.549Z,11.40
2023-03-17T02:34:37.858Z,9.80
2023-03-17T02:37:30.080Z,12.00
2023-03-17T02:40:24.637Z,9.30
2023-03-17T02:43:16.889Z,9.70
2023-03-17T02:46:08.852Z,10.40
2023-03-17T02:49:02.237Z,9.90
2023-03-17T02:51:54.831Z,13.90
2023-03-17T02:54:46.878Z,10.50
2023-03-17T02:57:38.927Z,10.10
2023-03-17T03:05:00.559Z,11.00
2023-03-17T03:07:28.889Z,9.80
2023-03-17T03:09:56.938Z,10.30
2023-03-17T03:12:25.631Z,9.80
2023-03-17T03:14:53.903Z,10.00
2023-03-17T03:17:22.379Z,13.20
2023-03-17T03:19:50.514Z,10.10
2023-03-17T03:22:18.496Z,8.00
2023-03-17T03:24:46.986Z,9.90
2023-03-17T03:27:15.094Z,7.80
2023-03-17T03:29:43.102Z,8.10
2023-03-17T03:32:11.282Z,8.60
2023-03-17T03:34:39.331Z,8.60
2023-03-17T03:37:08.311Z,9.40
2023-03-17T03:39:37.524Z,8.80
2023-03-17T03:42:07.124Z,10.80
2023-03-17T03:44:35.460Z,8.70
2023-03-17T03:47:03.557Z,8.80
2023-03-17T03:49:31.704Z,9.00
2023-03-17T03:51:59.765Z,8.80
2023-03-17T03:54:27.940Z,11.50
2023-03-17T03:56:55.916Z,8.40
2023-03-17T03:59:24.007Z,9.80
2023-03-17T04:01:52.090Z,9.30
2023-03-17T04:04:20.328Z,8.60
2023-03-17T04:06:48.586Z,9.20
2023-03-17T04:09:16.653Z,10.80
2023-03-17T04:11:44.720Z,8.50
2023-03-17T04:14:12.767Z,9.10
2023-03-17T04:16:43.412Z,10.00
2023-03-17T04:19:11.836Z,8.90
2023-03-17T04:21:40.291Z,9.30
2023-03-17T04:24:09.784Z,8.50
2023-03-17T04:26:37.856Z,9.50
2023-03-17T04:29:08.162Z,9.60
2023-03-17T04:31:37.813Z,12.40
2023-03-17T04:34:05.712Z,9.80
2023-03-17T04:36:33.739Z,10.40
2023-03-17T04:39:02.098Z,10.70
2023-03-17T04:41:30.104Z,9.40
2023-03-17T04:43:58.097Z,12.90
2023-03-17T04:46:26.440Z,9.30
2023-03-17T04:48:54.847Z,10.40
2023-03-17T04:51:22.887Z,9.40
2023-03-17T04:53:51.578Z,15.30
2023-03-17T04:56:19.618Z,9.10
2023-03-17T04:58:48.473Z,9.00
2023-03-17T05:01:16.605Z,9.70
2023-03-17T05:03:45.477Z,11.40
2023-03-17T05:06:13.550Z,9.40
2023-03-17T05:08:43.781Z,11.80
2023-03-17T05:11:12.913Z,9.80
2023-03-17T05:13:41.279Z,9.30
2023-03-17T05:16:10.523Z,9.10
2023-03-17T05:18:38.658Z,8.60
2023-03-17T05:21:07.816Z,9.40
2023-03-17T05:23:36.114Z,12.10
2023-03-17T05:26:05.130Z,10.10
2023-03-17T05:28:33.080Z,12.30
2023-03-17T05:31:01.062Z,10.70
2023-03-17T05:33:29.016Z,11.90
2023-03-17T05:35:57.501Z,12.10
2023-03-17T05:38:25.465Z,17.20
2023-03-17T05:40:53.717Z,14.20
2023-03-17T05:43:22.383Z,14.50
2023-03-17T05:45:50.793Z,10.50
2023-03-17T05:48:19.042Z,10.10
2023-03-17T05:50:47.357Z,11.10
2023-03-17T05:53:16.217Z,10.80
2023-03-17T05:55:44.821Z,11.50
2023-03-17T05:58:12.922Z,12.40
2023-03-17T06:00:40.911Z,12.10
2023-03-17T06:03:09.029Z,9.40
2023-03-17T06:05:37.620Z,13.30
2023-03-17T06:08:05.797Z,10.20
2023-03-17T06:10:33.883Z,10.50
2023-03-17T06:13:03.981Z,9.10
2023-03-17T06:15:33.974Z,38.40
2023-03-17T06:18:05.353Z,27.80
2023-03-17T06:20:34.172Z,19.60
2023-03-17T06:23:05.318Z,10.10
2023-03-17T06:25:35.549Z,10.50
2023-03-17T06:28:08.882Z,13.90
2023-03-17T06:30:40.413Z,7.60
2023-03-17T06:33:08.863Z,8.20
2023-03-17T06:35:38.257Z,9.00
2023-03-17T06:38:07.288Z,11.50
2023-03-17T06:40:35.790Z,12.30
2023-03-17T06:43:04.442Z,9.80
2023-03-17T06:45:33.489Z,10.40
2023-03-17T06:48:02.371Z,11.10
2023-03-17T06:50:30.530Z,11.50
2023-03-17T06:52:58.538Z,11.00
2023-03-17T06:55:27.535Z,11.50
2023-03-17T06:57:55.893Z,11.60
2023-03-17T07:00:23.984Z,11.10
2023-03-17T07:02:52.852Z,12.10
2023-03-17T07:05:20.775Z,12.00
2023-03-17T07:07:49.490Z,12.00
2023-03-17T07:10:18.266Z,10.50
2023-03-17T07:12:46.297Z,11.60
2023-03-17T07:15:15.584Z,11.10
2023-03-17T07:17:44.374Z,8.10
2023-03-17T07:20:14.048Z,5.90
2023-03-17T07:22:42.427Z,9.80
2023-03-17T07:25:12.004Z,10.70
2023-03-17T07:27:40.987Z,10.80
2023-03-17T07:30:11.590Z,17.20
2023-03-17T07:32:39.575Z,6.90
2023-03-17T07:35:08.408Z,9.70
2023-03-17T07:37:37.019Z,5.80
2023-03-17T07:40:06.621Z,12.70
2023-03-17T07:42:35.440Z,15.20
2023-03-17T07:45:06.054Z,13.40
2023-03-17T07:47:34.059Z,11.70
2023-03-17T07:50:02.330Z,10.80
2023-03-17T07:52:30.689Z,9.90
2023-03-17T07:54:58.843Z,11.60
2023-03-17T07:57:27.608Z,10.30
2023-03-17T07:59:56.095Z,8.00
2023-03-17T08:02:24.392Z,9.00
2023-03-17T08:04:54.236Z,8.60
2023-03-17T08:07:22.433Z,9.20
2023-03-17T08:09:51.274Z,13.10
2023-03-17T08:12:20.204Z,10.20
2023-03-17T08:14:48.141Z,8.50
2023-03-17T08:17:17.436Z,14.00
2023-03-17T08:19:45.724Z,8.40
2023-03-17T08:22:13.777Z,7.10
2023-03-17T08:24:43.146Z,8.60
2023-03-17T08:27:11.537Z,6.20
2023-03-17T08:29:39.840Z,6.60
2023-03-17T08:32:08.778Z,4.50
2023-03-17T08:34:36.899Z,6.40
2023-03-17T08:37:04.913Z,8.00
2023-03-17T08:39:33.950Z,7.20
2023-03-17T08:42:03.691Z,7.00
2023-03-17T08:44:31.999Z,4.90
2023-03-17T08:46:59.990Z,6.60
2023-03-17T08:49:28.606Z,5.10
2023-03-17T08:51:56.865Z,4.90
2023-03-17T08:54:25.085Z,7.30
2023-03-17T08:56:53.850Z,5.90
2023-03-17T08:59:22.112Z,4.20
2023-03-17T09:01:50.715Z,5.00
2023-03-17T09:04:19.202Z,7.30
2023-03-17T09:07:02.213Z,9.70
2023-03-17T09:09:31.435Z,5.30
2023-03-17T09:11:59.598Z,5.00
2023-03-17T09:14:29.571Z,4.50
2023-03-17T09:16:58.124Z,4.80
2023-03-17T09:19:26.727Z,4.60
2023-03-17T09:21:57.244Z,7.00
2023-03-17T09:24:26.166Z,4.60
2023-03-17T09:26:56.742Z,5.10
2023-03-17T09:29:27.507Z,6.50
2023-03-17T09:31:59.578Z,4.40
2023-03-17T09:34:28.902Z,3.30
2023-03-17T09:36:59.968Z,4.70
2023-03-17T09:39:29.367Z,2.60
2023-03-17T09:42:04.402Z,4.10
2023-03-17T09:44:55.951Z,6.10
2023-03-17T09:47:50.996Z,4.40
2023-03-17T09:50:38.465Z,3.30
2023-03-17T09:53:16.989Z,4.20
2023-03-17T09:55:52.842Z,4.20
2023-03-17T09:58:29.591Z,4.70
2023-03-17T10:01:01.999Z,4.80
2023-03-17T10:03:31.049Z,4.20
2023-03-17T10:06:28.459Z,4.30
2023-03-17T10:09:26.147Z,3.40
2023-03-17T10:12:04.794Z,6.30
2023-03-17T10:14:33.699Z,3.30
2023-03-17T10:17:13.749Z,6.90
2023-03-17T10:20:03.121Z,6.60
2023-03-17T10:22:44.680Z,3.10
2023-03-17T10:25:20.033Z,4.60
2023-03-17T10:28:09.178Z,2.60
2023-03-17T10:30:39.098Z,3.40
2023-03-17T10:33:12.626Z,5.10
2023-03-17T10:35:41.410Z,4.00
2023-03-17T10:38:24.068Z,4.80
2023-03-17T10:41:02.501Z,6.50
2023-03-17T10:43:38.765Z,3.70
2023-03-17T10:46:17.308Z,3.10
2023-03-17T10:48:52.933Z,5.50
2023-03-17T10:51:30.688Z,4.10
2023-03-17T10:54:09.586Z,8.50
2023-03-17T10:56:42.267Z,8.70
2023-03-17T10:59:28.356Z,3.70
2023-03-17T11:02:00.252Z,4.00
2023-03-17T11:04:36.381Z,3.20
2023-03-17T11:07:19.620Z,5.30
2023-03-17T11:09:55.078Z,3.40
2023-03-17T11:12:36.660Z,2.70
2023-03-17T11:15:12.064Z,8.10
2023-03-17T11:17:46.175Z,4.50
2023-03-17T11:20:46.317Z,2.40
2023-03-17T11:23:42.557Z,5.60
2023-03-17T11:26:29.766Z,2.70
2023-03-17T11:29:00.565Z,2.10
2023-03-17T11:31:59.528Z,4.80
2023-03-17T11:34:39.844Z,2.40
2023-03-17T11:37:36.176Z,2.40
2023-03-17T11:40:29.446Z,3.70
2023-03-17T11:43:35.475Z,2.50
2023-03-17T11:46:13.357Z,2.40
2023-03-17T11:48:41.562Z,3.60
2023-03-17T11:51:36.137Z,35.70
2023-03-17T11:54:17.383Z,7.50
2023-03-17T11:56:54.223Z,3.30
2023-03-17T11:59:28.438Z,4.80
2023-03-17T12:02:15.732Z,2.10
2023-03-17T12:04:53.720Z,3.10
2023-03-17T12:07:26.352Z,2.20
2023-03-17T12:10:11.042Z,4.50
2023-03-17T12:12:44.728Z,3.00
2023-03-17T12:15:38.462Z,6.50
2023-03-17T12:18:25.265Z,2.80
2023-03-17T12:20:55.697Z,3.30
2023-03-17T12:23:48.222Z,5.20
2023-03-17T12:26:21.408Z,2.50
2023-03-17T12:28:57.437Z,2.00
2023-03-17T12:31:36.986Z,3.20
2023-03-17T12:34:17.063Z,2.40
2023-03-17T12:36:45.375Z,4.50
2023-03-17T12:39:19.973Z,4.90
2023-03-17T12:42:02.762Z,3.70
2023-03-17T12:45:05.043Z,4.90
2023-03-17T12:47:57.505Z,3.50
2023-03-17T12:50:34.458Z,3.20
2023-03-17T12:53:26.720Z,3.10
2023-03-17T12:55:58.450Z,2.90
2023-03-17T12:58:38.936Z,6.80
2023-03-17T13:01:32.153Z,6.10
2023-03-17T13:04:27.357Z,4.10
2023-03-17T13:07:09.277Z,5.10
2023-03-17T13:09:57.491Z,5.90
2023-03-17T13:12:44.829Z,2.40
2023-03-17T13:15:35.014Z,4.30
2023-03-17T13:18:15.455Z,3.30
2023-03-17T13:21:12.198Z,3.10
2023-03-17T13:23:46.088Z,2.50
2023-03-17T13:26:19.625Z,2.40
2023-03-17T13:28:51.032Z,5.00
2023-03-17T13:31:28.588Z,5.80
2023-03-17T13:34:02.731Z,4.50
2023-03-17T13:36:46.812Z,4.30
2023-03-17T13:39:27.220Z,5.40
2023-03-17T13:42:18.764Z,18.70
2023-03-17T13:45:08.542Z,3.90
2023-03-17T13:47:42.759Z,3.80
2023-03-17T13:50:17.439Z,3.30
2023-03-17T13:53:02.564Z,4.30
2023-03-17T13:55:35.048Z,3.40
2023-03-17T13:58:09.123Z,4.40
2023-03-17T14:00:46.876Z,5.20
2023-03-17T14:03:29.275Z,4.90
2023-03-17T14:06:01.379Z,9.50
2023-03-17T14:08:36.268Z,6.40
2023-03-17T14:11:09.072Z,12.00
2023-03-17T14:13:37.045Z,9.90
2023-03-17T14:16:26.308Z,9.50
2023-03-17T14:19:00.717Z,4.90
2023-03-17T14:21:33.369Z,7.80
2023-03-17T14:24:04.388Z,6.50
2023-03-17T14:26:32.887Z,3.90
2023-03-17T14:29:04.911Z,5.50
2023-03-17T14:31:33.449Z,7.00
2023-03-17T14:34:01.715Z,7.40
2023-03-17T14:36:33.749Z,4.10
2023-03-17T14:39:01.837Z,4.20
2023-03-17T14:41:31.251Z,6.10
2023-03-17T14:44:01.681Z,7.80
2023-03-17T14:46:38.765Z,3.40
2023-03-17T14:49:20.002Z,10.10
2023-03-17T14:51:51.325Z,4.70
2023-03-17T14:54:27.312Z,4.60
2023-03-17T14:57:02.242Z,4.90
2023-03-17T14:59:33.306Z,4.10
2023-03-17T15:02:15.817Z,13.30
2023-03-17T15:04:53.753Z,6.00
2023-03-17T15:07:40.893Z,10.00
2023-03-17T15:10:19.378Z,3.80
2023-03-17T15:12:48.458Z,8.70
2023-03-17T15:15:29.579Z,9.30
2023-03-17T15:18:01.534Z,5.20
2023-03-17T15:20:33.884Z,4.00
2023-03-17T15:23:23.051Z,6.10
2023-03-17T15:25:55.950Z,6.70
2023-03-17T15:28:33.265Z,12.40
2023-03-17T15:31:13.177Z,10.20
2023-03-17T15:33:42.588Z,9.20
2023-03-17T15:36:31.811Z,6.40
2023-03-17T15:39:02.645Z,4.40
2023-03-17T15:41:30.786Z,5.70
2023-03-17T15:43:58.826Z,4.50
2023-03-17T15:46:31.081Z,9.50
2023-03-17T15:48:59.851Z,11.40
2023-03-17T15:51:27.956Z,5.50
2023-03-17T15:53:57.112Z,8.00
2023-03-17T15:56:26.103Z,4.30
2023-03-17T15:58:54.060Z,3.70
2023-03-17T16:01:22.086Z,9.30
2023-03-17T16:03:50.209Z,6.90
2023-03-17T16:06:22.101Z,5.30
2023-03-17T16:08:51.734Z,6.40
2023-03-17T16:11:28.127Z,8.40
2023-03-17T16:14:00.475Z,7.00
2023-03-17T16:16:37.882Z,4.50
2023-03-17T16:19:10.369Z,9.80
2023-03-17T16:21:38.441Z,6.70
2023-03-17T16:24:06.784Z,6.30
2023-03-17T16:26:34.754Z,6.60
2023-03-17T16:29:07.106Z,5.20
2023-03-17T16:31:36.791Z,6.60
2023-03-17T16:34:16.647Z,7.10
2023-03-17T16:36:45.421Z,4.70
2023-03-17T16:39:18.717Z,5.00
2023-03-17T16:41:48.684Z,8.60
2023-03-17T16:44:18.822Z,6.90
2023-03-17T16:46:47.817Z,8.50
2023-03-17T16:49:18.816Z,7.90
2023-03-17T16:51:49.378Z,7.40
2023-03-17T16:54:18.795Z,4.30
2023-03-17T16:56:47.160Z,3.80
2023-03-17T16:59:21.201Z,11.90
2023-03-17T17:01:49.356Z,13.20
2023-03-17T17:04:17.422Z,31.50
2023-03-17T17:06:45.775Z,25.60
2023-03-17T17:09:13.769Z,19.90
2023-03-17T17:11:41.960Z,17.20
2023-03-17T17:14:10.044Z,15.50
2023-03-17T17:16:42.077Z,11.40
2023-03-17T17:19:16.707Z,13.50
2023-03-17T17:21:45.008Z,17.40
2023-03-17T17:24:13.944Z,13.50
2023-03-17T17:26:42.037Z,31.70
2023-03-17T17:29:10.005Z,17.20
2023-03-17T17:31:38.663Z,18.70
2023-03-17T17:34:06.716Z,22.00
2023-03-17T17:36:34.821Z,21.90
2023-03-17T17:39:03.346Z,26.20
2023-03-17T17:41:32.621Z,29.80
2023-03-17T17:44:00.681Z,33.80
2023-03-17T17:46:28.747Z,32.50
2023-03-17T17:48:57.456Z,33.60
2023-03-17T17:51:25.622Z,27.00
2023-03-17T17:53:53.596Z,33.20
2023-03-17T17:56:21.635Z,19.80
2023-03-17T17:58:50.019Z,25.40
2023-03-17T18:01:21.977Z,20.10
2023-03-17T18:03:50.547Z,15.30
2023-03-17T18:06:19.122Z,17.50
2023-03-17T18:08:47.185Z,12.00
2023-03-17T18:11:15.206Z,12.20
2023-03-17T18:13:43.366Z,6.50
2023-03-17T18:16:15.683Z,13.50
2023-03-17T18:18:45.757Z,8.20
2023-03-17T18:21:13.904Z,7.80
2023-03-17T18:23:49.572Z,8.70
2023-03-17T18:26:18.411Z,6.40
2023-03-17T18:28:47.822Z,7.10
2023-03-17T18:31:23.733Z,6.50
2023-03-17T18:33:56.553Z,9.80
2023-03-17T18:36:27.359Z,5.00
2023-03-17T18:38:56.291Z,7.00
2023-03-17T18:41:24.690Z,6.60
2023-03-17T18:43:52.646Z,4.60
2023-03-17T18:46:20.650Z,6.60
2023-03-17T18:48:48.579Z,6.40
2023-03-17T18:51:16.909Z,6.60
2023-03-17T18:53:44.890Z,10.50
2023-03-17T18:56:13.463Z,7.20
2023-03-17T18:58:41.731Z,6.10
2023-03-17T19:01:09.783Z,5.70
2023-03-17T19:03:37.986Z,9.10
2023-03-17T19:06:12.759Z,10.60
2023-03-17T19:08:41.435Z,7.70
2023-03-17T19:11:11.342Z,10.50
2023-03-17T19:13:40.419Z,7.10
2023-03-17T19:16:09.385Z,7.10
2023-03-17T19:18:40.823Z,10.60
2023-03-17T19:21:11.539Z,6.90
2023-03-17T19:23:41.333Z,6.20
2023-03-17T19:26:10.481Z,6.00
2023-03-17T19:28:38.711Z,7.60
2023-03-17T19:31:07.487Z,7.20
2023-03-17T19:33:36.186Z,5.30
2023-03-17T19:36:11.626Z,7.60
2023-03-17T19:38:40.567Z,10.50
2023-03-17T19:41:09.585Z,6.10
2023-03-17T19:43:41.143Z,6.10
2023-03-17T19:46:11.517Z,9.00
2023-03-17T19:48:40.699Z,6.00
2023-03-17T19:51:09.452Z,4.50
2023-03-17T19:53:38.010Z,5.10
2023-03-17T19:56:07.223Z,5.20
2023-03-17T19:58:35.290Z,5.40
2023-03-17T20:01:07.655Z,5.90
2023-03-17T20:03:37.996Z,5.60
2023-03-17T20:06:06.583Z,8.90
2023-03-17T20:08:36.314Z,5.40
2023-03-17T20:11:06.044Z,6.10
2023-03-17T20:13:35.768Z,7.30
2023-03-17T20:16:04.760Z,5.30
2023-03-17T20:18:33.101Z,7.90
2023-03-17T20:21:05.327Z,9.30
2023-03-17T20:23:35.573Z,8.50
2023-03-17T20:26:04.276Z,6.40
2023-03-17T20:28:32.584Z,6.30
2023-03-17T20:31:04.533Z,7.80
2023-03-17T20:33:33.597Z,8.20
2023-03-17T20:36:03.412Z,10.20
2023-03-17T20:38:36.997Z,7.10
2023-03-17T20:41:13.786Z,10.90
2023-03-17T20:43:42.161Z,7.10
2023-03-17T20:46:19.267Z,8.40
2023-03-17T20:48:52.195Z,12.20
2023-03-17T20:51:20.370Z,10.40
2023-03-17T20:53:49.367Z,8.60
2023-03-17T20:56:23.627Z,8.10
2023-03-17T20:58:56.944Z,9.90
2023-03-17T21:01:26.966Z,8.50
2023-03-17T21:03:55.224Z,10.70
2023-03-17T21:06:26.135Z,10.70
2023-03-17T21:08:56.188Z,12.70
2023-03-17T21:11:26.853Z,13.80
2023-03-17T21:13:57.002Z,11.30
2023-03-17T21:16:28.629Z,14.50
2023-03-17T21:18:57.862Z,22.20
2023-03-17T21:21:27.076Z,23.00
2023-03-17T21:23:56.974Z,25.80
2023-03-17T21:26:25.577Z,40.10
2023-03-17T21:28:59.521Z,35.00
2023-03-17T21:31:28.024Z,28.30
2023-03-17T21:33:57.859Z,30.30
2023-03-17T21:36:27.520Z,24.40
2023-03-17T21:38:55.998Z,18.90
2023-03-17T21:41:32.217Z,18.30
2023-03-17T21:44:02.507Z,19.00
2023-03-17T21:46:31.739Z,15.70
2023-03-17T21:49:01.403Z,12.90
2023-03-17T21:51:30.174Z,14.70
2023-03-17T21:53:58.647Z,8.40
2023-03-17T21:56:27.452Z,10.10
2023-03-17T21:58:56.431Z,13.00
2023-03-17T22:01:24.631Z,9.40
2023-03-17T22:03:52.741Z,11.20
2023-03-17T22:06:21.718Z,11.40
2023-03-17T22:08:50.640Z,9.20
2023-03-17T22:11:19.917Z,10.50
2023-03-17T22:13:48.855Z,10.50
2023-03-17T22:16:18.633Z,10.50
2023-03-17T22:18:47.734Z,8.80
2023-03-17T22:21:15.763Z,9.80
2023-03-17T22:23:44.453Z,12.20
2023-03-17T22:26:15.171Z,12.20
2023-03-17T22:28:45.357Z,9.10
2023-03-17T22:31:18.525Z,8.50
2023-03-17T22:33:48.964Z,9.20
2023-03-17T22:36:17.888Z,8.70
2023-03-17T22:38:46.883Z,13.80
2023-03-17T22:41:18.678Z,10.00
2023-03-17T22:43:47.483Z,9.30
2023-03-17T22:46:16.484Z,10.60
2023-03-17T22:48:46.236Z,9.30
2023-03-17T22:51:17.623Z,11.60
2023-03-17T22:53:46.705Z,11.10
2023-03-17T22:56:16.818Z,24.00
2023-03-17T22:58:45.982Z,25.40
2023-03-17T23:01:16.288Z,25.00
2023-03-17T23:03:46.152Z,22.10
2023-03-17T23:06:14.904Z,22.00
2023-03-17T23:08:44.215Z,20.50
2023-03-17T23:11:19.792Z,27.20
2023-03-17T23:13:49.353Z,24.90
2023-03-17T23:16:17.507Z,25.30
2023-03-17T23:18:46.819Z,28.60
2023-03-17T23:21:35.933Z,27.90
2023-03-17T23:24:05.740Z,28.00
2023-03-17T23:26:36.186Z,15.70
2023-03-17T23:29:07.216Z,20.20
2023-03-17T23:31:36.977Z,15.30
2023-03-17T23:34:06.727Z,16.40
2023-03-17T23:36:38.382Z,14.30
2023-03-17T23:39:08.390Z,16.60
2023-03-17T23:41:37.383Z,13.90
2023-03-17T23:44:05.569Z,16.90
2023-03-17T23:46:34.452Z,11.20
2023-03-17T23:49:04.368Z,15.70
2023-03-17T23:51:33.491Z,15.80
2023-03-17T23:54:01.873Z,14.00
2023-03-17T23:56:30.808Z,15.80
2023-03-17T23:58:59.084Z,15.50
